sensor_id;sensor_type;location;lat;lon;timestamp;pressure;altitude;pressure_sealevel;temperature
45565;BMP280;31280;40.408;17.282;2022-12-26T00:01:36;102413.03;;;11.90
45565;BMP280;31280;40.408;17.282;2022-12-26T00:04:03;102403.75;;;11.80
45565;BMP280;31280;40.408;17.282;2022-12-26T00:06:29;102422.69;;;11.91
45565;BMP280;31280;40.408;17.282;2022-12-26T00:08:56;102430.78;;;11.91
45565;BMP280;31280;40.408;17.282;2022-12-26T00:11:23;102414.94;;;11.82
45565;BMP280;31280;40.408;17.282;2022-12-26T00:13:56;102431.94;;;11.90
45565;BMP280;31280;40.408;17.282;2022-12-26T00:16:23;102429.25;;;11.90
45565;BMP280;31280;40.408;17.282;2022-12-26T00:18:49;102437.75;;;11.92
45565;BMP280;31280;40.408;17.282;2022-12-26T00:21:16;102436.19;;;11.91
45565;BMP280;31280;40.408;17.282;2022-12-26T00:23:43;102423.03;;;11.82
45565;BMP280;31280;40.408;17.282;2022-12-26T00:26:15;102437.75;;;11.92
45565;BMP280;31280;40.408;17.282;2022-12-26T00:28:42;102444.28;;;11.91
45565;BMP280;31280;40.408;17.282;2022-12-26T00:31:11;102436.16;;;11.87
45565;BMP280;31280;40.408;17.282;2022-12-26T00:33:37;102438.50;;;11.89
45565;BMP280;31280;40.408;17.282;2022-12-26T00:36:05;102447.38;;;11.89
45565;BMP280;31280;40.408;17.282;2022-12-26T00:38:36;102446.59;;;11.89
45565;BMP280;31280;40.408;17.282;2022-12-26T00:41:03;102443.91;;;11.89
45565;BMP280;31280;40.408;17.282;2022-12-26T00:43:29;102432.28;;;11.81
45565;BMP280;31280;40.408;17.282;2022-12-26T00:45:55;102431.09;;;11.79
45565;BMP280;31280;40.408;17.282;2022-12-26T00:48:21;102448.16;;;11.90
45565;BMP280;31280;40.408;17.282;2022-12-26T00:50:47;102429.53;;;11.78
45565;BMP280;31280;40.408;17.282;2022-12-26T00:53:13;102452.38;;;11.91
45565;BMP280;31280;40.408;17.282;2022-12-26T00:55:38;102448.53;;;11.88
45565;BMP280;31280;40.408;17.282;2022-12-26T00:58:04;102453.97;;;11.92
45565;BMP280;31280;40.408;17.282;2022-12-26T01:00:31;102457.78;;;11.91
45565;BMP280;31280;40.408;17.282;2022-12-26T01:02:57;102459.34;;;11.92
45565;BMP280;31280;40.408;17.282;2022-12-26T01:05:23;102469.34;;;11.91
45565;BMP280;31280;40.408;17.282;2022-12-26T01:07:49;102453.88;;;11.81
45565;BMP280;31280;40.408;17.282;2022-12-26T01:10:14;102470.16;;;11.92
45565;BMP280;31280;40.408;17.282;2022-12-26T01:12:40;102474.00;;;11.91
45565;BMP280;31280;40.408;17.282;2022-12-26T01:15:07;102474.75;;;11.91
45565;BMP280;31280;40.408;17.282;2022-12-26T01:17:33;102470.16;;;11.88
45565;BMP280;31280;40.408;17.282;2022-12-26T01:19:59;102455.75;;;11.77
45565;BMP280;31280;40.408;17.282;2022-12-26T01:22:26;102473.25;;;11.90
45565;BMP280;31280;40.408;17.282;2022-12-26T01:24:53;102468.59;;;11.91
45565;BMP280;31280;40.408;17.282;2022-12-26T01:27:19;102463.91;;;11.81
45565;BMP280;31280;40.408;17.282;2022-12-26T01:29:45;102468.56;;;11.84
45565;BMP280;31280;40.408;17.282;2022-12-26T01:32:10;102475.53;;;11.88
45565;BMP280;31280;40.408;17.282;2022-12-26T01:34:36;102475.50;;;11.85
45565;BMP280;31280;40.408;17.282;2022-12-26T01:37:02;102476.31;;;11.89
45565;BMP280;31280;40.408;17.282;2022-12-26T01:39:28;102469.31;;;11.81
45565;BMP280;31280;40.408;17.282;2022-12-26T01:41:54;102478.59;;;11.87
45565;BMP280;31280;40.408;17.282;2022-12-26T01:47:21;102480.13;;;11.84
45565;BMP280;31280;40.408;17.282;2022-12-26T01:49:51;102460.78;;;11.75
45565;BMP280;31280;40.408;17.282;2022-12-26T01:52:41;102471.63;;;11.86
45565;BMP280;31280;40.408;17.282;2022-12-26T01:55:10;102472.44;;;11.86
45565;BMP280;31280;40.408;17.282;2022-12-26T01:57:42;102470.09;;;11.85
45565;BMP280;31280;40.408;17.282;2022-12-26T02:00:09;102472.03;;;11.88
45565;BMP280;31280;40.408;17.282;2022-12-26T02:02:36;102470.91;;;11.89
45565;BMP280;31280;40.408;17.282;2022-12-26T02:05:26;102467.06;;;11.90
45565;BMP280;31280;40.408;17.282;2022-12-26T02:10:31;102471.69;;;11.89
45565;BMP280;31280;40.408;17.282;2022-12-26T02:12:58;102471.69;;;11.89
45565;BMP280;31280;40.408;17.282;2022-12-26T02:15:24;102466.63;;;11.88
45565;BMP280;31280;40.408;17.282;2022-12-26T02:17:50;102457.75;;;11.84
45565;BMP280;31280;40.408;17.282;2022-12-26T02:31:59;102451.94;;;11.82
45565;BMP280;31280;40.408;17.282;2022-12-26T02:42:52;102459.63;;;11.76
45565;BMP280;31280;40.408;17.282;2022-12-26T02:45:47;102466.19;;;11.75
45565;BMP280;31280;40.408;17.282;2022-12-26T02:57:05;102471.59;;;11.79
45565;BMP280;31280;40.408;17.282;2022-12-26T03:05:44;102465.16;;;11.94
45565;BMP280;31280;40.408;17.282;2022-12-26T03:08:34;102464.00;;;11.95
45565;BMP280;31280;40.408;17.282;2022-12-26T03:11:20;102457.81;;;11.94
45565;BMP280;31280;40.408;17.282;2022-12-26T03:14:18;102464.78;;;11.99
45565;BMP280;31280;40.408;17.282;2022-12-26T03:16:49;102445.44;;;11.90
45565;BMP280;31280;40.408;17.282;2022-12-26T03:19:36;102452.78;;;11.93
45565;BMP280;31280;40.408;17.282;2022-12-26T03:25:04;102445.28;;;11.66
45565;BMP280;31280;40.408;17.282;2022-12-26T03:27:49;102456.94;;;11.80
45565;BMP280;31280;40.408;17.282;2022-12-26T03:30:15;102449.31;;;11.89
45565;BMP280;31280;40.408;17.282;2022-12-26T03:33:01;102452.38;;;11.91
45565;BMP280;31280;40.408;17.282;2022-12-26T03:35:31;102424.53;;;11.80
45565;BMP280;31280;40.408;17.282;2022-12-26T03:38:26;102450.16;;;12.00
45565;BMP280;31280;40.408;17.282;2022-12-26T03:41:06;102423.41;;;11.81
45565;BMP280;31280;40.408;17.282;2022-12-26T03:44:20;102446.28;;;12.01
45565;BMP280;31280;40.408;17.282;2022-12-26T03:47:18;102456.34;;;12.03
45565;BMP280;31280;40.408;17.282;2022-12-26T03:50:17;102440.88;;;12.01
45565;BMP280;31280;40.408;17.282;2022-12-26T03:53:12;102448.28;;;12.07
45565;BMP280;31280;40.408;17.282;2022-12-26T03:56:09;102443.63;;;12.07
45565;BMP280;31280;40.408;17.282;2022-12-26T03:59:04;102447.06;;;12.04
45565;BMP280;31280;40.408;17.282;2022-12-26T04:01:51;102451.75;;;12.07
45565;BMP280;31280;40.408;17.282;2022-12-26T04:04:38;102448.97;;;11.97
45565;BMP280;31280;40.408;17.282;2022-12-26T04:07:27;102449.38;;;11.96
45565;BMP280;31280;40.408;17.282;2022-12-26T04:10:25;102457.78;;;11.91
45565;BMP280;31280;40.408;17.282;2022-12-26T04:13:19;102453.97;;;11.92
45565;BMP280;31280;40.408;17.282;2022-12-26T04:16:18;102454.22;;;11.76
45565;BMP280;31280;40.408;17.282;2022-12-26T04:27:57;102460.03;;;11.78
45565;BMP280;31280;40.408;17.282;2022-12-26T04:30:44;102442.63;;;11.69
45565;BMP280;31280;40.408;17.282;2022-12-26T04:33:36;102399.44;;;11.23
45565;BMP280;31280;40.408;17.282;2022-12-26T04:36:31;102466.84;;;11.62
45565;BMP280;31280;40.408;17.282;2022-12-26T04:39:20;102467.63;;;11.63
45565;BMP280;31280;40.408;17.282;2022-12-26T04:42:07;102451.75;;;11.54
45565;BMP280;31280;40.408;17.282;2022-12-26T04:44:52;102464.53;;;11.61
45565;BMP280;31280;40.408;17.282;2022-12-26T04:47:20;102467.97;;;11.58
45565;BMP280;31280;40.408;17.282;2022-12-26T04:49:45;102467.59;;;11.59
45565;BMP280;31280;40.408;17.282;2022-12-26T04:52:30;102469.88;;;11.57
45565;BMP280;31280;40.408;17.282;2022-12-26T04:55:15;102479.19;;;11.60
45565;BMP280;31280;40.408;17.282;2022-12-26T04:57:41;102474.19;;;11.62
45565;BMP280;31280;40.408;17.282;2022-12-26T05:00:07;102473.00;;;11.56
45565;BMP280;31280;40.408;17.282;2022-12-26T05:02:33;102489.59;;;11.61
45565;BMP280;31280;40.408;17.282;2022-12-26T05:05:18;102489.56;;;11.58
45565;BMP280;31280;40.408;17.282;2022-12-26T05:08:02;102478.34;;;11.52
45565;BMP280;31280;40.408;17.282;2022-12-26T05:10:47;102493.09;;;11.62
45565;BMP280;31280;40.408;17.282;2022-12-26T05:13:12;102492.28;;;11.61
45565;BMP280;31280;40.408;17.282;2022-12-26T05:15:38;102501.56;;;11.64
45565;BMP280;31280;40.408;17.282;2022-12-26T05:18:22;102503.91;;;11.65
45565;BMP280;31280;40.408;17.282;2022-12-26T05:21:11;102494.97;;;11.61
45565;BMP280;31280;40.408;17.282;2022-12-26T05:23:56;102507.06;;;11.74
45565;BMP280;31280;40.408;17.282;2022-12-26T05:26:41;102501.59;;;11.70
45565;BMP280;31280;40.408;17.282;2022-12-26T05:29:26;102518.34;;;11.83
45565;BMP280;31280;40.408;17.282;2022-12-26T05:31:51;102512.53;;;11.84
45565;BMP280;31280;40.408;17.282;2022-12-26T05:34:17;102508.31;;;11.87
45565;BMP280;31280;40.408;17.282;2022-12-26T05:36:47;102507.16;;;11.88
45565;BMP280;31280;40.408;17.282;2022-12-26T05:39:14;102509.44;;;11.86
45565;BMP280;31280;40.408;17.282;2022-12-26T05:41:40;102513.72;;;11.87
45565;BMP280;31280;40.408;17.282;2022-12-26T05:44:07;102509.84;;;11.84
45565;BMP280;31280;40.408;17.282;2022-12-26T05:46:33;102504.00;;;11.75
45565;BMP280;31280;40.408;17.282;2022-12-26T05:48:59;102507.81;;;11.74
45565;BMP280;31280;40.408;17.282;2022-12-26T05:51:26;102513.22;;;11.74
45565;BMP280;31280;40.408;17.282;2022-12-26T05:53:52;102515.16;;;11.74
45565;BMP280;31280;40.408;17.282;2022-12-26T05:56:18;102520.13;;;11.72
45565;BMP280;31280;40.408;17.282;2022-12-26T05:58:45;102521.31;;;11.71
45565;BMP280;31280;40.408;17.282;2022-12-26T06:01:18;102521.69;;;11.70
45565;BMP280;31280;40.408;17.282;2022-12-26T06:03:52;102515.53;;;11.69
45565;BMP280;31280;40.408;17.282;2022-12-26T06:06:19;102526.31;;;11.69
45565;BMP280;31280;40.408;17.282;2022-12-26T06:08:50;102520.91;;;11.69
45565;BMP280;31280;40.408;17.282;2022-12-26T06:11:17;102526.31;;;11.69
45565;BMP280;31280;40.408;17.282;2022-12-26T06:13:43;102522.81;;;11.69
45565;BMP280;31280;40.408;17.282;2022-12-26T06:16:11;102518.59;;;11.68
45565;BMP280;31280;40.408;17.282;2022-12-26T06:18:38;102522.41;;;11.67
45565;BMP280;31280;40.408;17.282;2022-12-26T06:21:09;102523.22;;;11.67
45565;BMP280;31280;40.408;17.282;2022-12-26T06:23:35;102524.75;;;11.68
45565;BMP280;31280;40.408;17.282;2022-12-26T06:26:02;102526.31;;;11.69
45565;BMP280;31280;40.408;17.282;2022-12-26T06:28:28;102523.19;;;11.70
45565;BMP280;31280;40.408;17.282;2022-12-26T06:31:00;102520.47;;;11.64
45565;BMP280;31280;40.408;17.282;2022-12-26T06:33:27;102529.00;;;11.72
45565;BMP280;31280;40.408;17.282;2022-12-26T06:35:52;102532.50;;;11.73
45565;BMP280;31280;40.408;17.282;2022-12-26T06:38:18;102521.97;;;11.61
45565;BMP280;31280;40.408;17.282;2022-12-26T06:40:43;102530.94;;;11.72
45565;BMP280;31280;40.408;17.282;2022-12-26T06:43:09;102536.41;;;11.75
45565;BMP280;31280;40.408;17.282;2022-12-26T06:45:35;102533.22;;;11.70
45565;BMP280;31280;40.408;17.282;2022-12-26T06:48:01;102533.69;;;11.75
45565;BMP280;31280;40.408;17.282;2022-12-26T06:50:27;102522.81;;;11.69
45565;BMP280;31280;40.408;17.282;2022-12-26T06:52:53;102544.94;;;11.81
45565;BMP280;31280;40.408;17.282;2022-12-26T06:55:19;102533.31;;;11.77
45565;BMP280;31280;40.408;17.282;2022-12-26T06:57:44;102540.31;;;11.85
45565;BMP280;31280;40.408;17.282;2022-12-26T07:00:11;102543.41;;;11.87
45565;BMP280;31280;40.408;17.282;2022-12-26T07:02:36;102548.47;;;11.88
45565;BMP280;31280;40.408;17.282;2022-12-26T07:05:03;102548.88;;;11.94
45565;BMP280;31280;40.408;17.282;2022-12-26T07:07:28;102550.84;;;11.97
45565;BMP280;31280;40.408;17.282;2022-12-26T07:09:55;102548.94;;;12.01
45565;BMP280;31280;40.408;17.282;2022-12-26T07:12:21;102548.22;;;12.03
45565;BMP280;31280;40.408;17.282;2022-12-26T07:14:47;102553.63;;;12.10
45565;BMP280;31280;40.408;17.282;2022-12-26T07:17:12;102556.78;;;12.19
45565;BMP280;31280;40.408;17.282;2022-12-26T07:19:38;102559.16;;;12.24
45565;BMP280;31280;40.408;17.282;2022-12-26T07:22:04;102546.78;;;12.23
45565;BMP280;31280;40.408;17.282;2022-12-26T07:24:29;102557.28;;;12.35
45565;BMP280;31280;40.408;17.282;2022-12-26T07:26:55;102562.34;;;12.47
45565;BMP280;31280;40.408;17.282;2022-12-26T07:29:21;102573.22;;;12.54
45565;BMP280;31280;40.408;17.282;2022-12-26T07:31:48;102569.00;;;12.60
45565;BMP280;31280;40.408;17.282;2022-12-26T07:34:14;102570.56;;;12.61
45565;BMP280;31280;40.408;17.282;2022-12-26T07:36:40;102574.91;;;12.75
45565;BMP280;31280;40.408;17.282;2022-12-26T07:39:06;102561.72;;;12.70
45565;BMP280;31280;40.408;17.282;2022-12-26T07:41:32;102572.56;;;12.77
45565;BMP280;31280;40.408;17.282;2022-12-26T07:44:16;102587.28;;;12.90
45565;BMP280;31280;40.408;17.282;2022-12-26T07:46:42;102585.41;;;12.94
45565;BMP280;31280;40.408;17.282;2022-12-26T07:49:10;102599.34;;;13.03
45565;BMP280;31280;40.408;17.282;2022-12-26T07:51:36;102587.38;;;13.00
45565;BMP280;31280;40.408;17.282;2022-12-26T07:54:02;102596.66;;;13.10
45565;BMP280;31280;40.408;17.282;2022-12-26T07:56:27;102601.69;;;13.15
45565;BMP280;31280;40.408;17.282;2022-12-26T07:58:53;102612.91;;;13.17
45565;BMP280;31280;40.408;17.282;2022-12-26T08:01:19;102607.53;;;13.20
45565;BMP280;31280;40.408;17.282;2022-12-26T08:03:47;102612.97;;;13.23
45565;BMP280;31280;40.408;17.282;2022-12-26T08:06:13;102611.78;;;13.24
45565;BMP280;31280;40.408;17.282;2022-12-26T08:08:39;102617.97;;;13.28
45565;BMP280;31280;40.408;17.282;2022-12-26T08:11:06;102616.84;;;13.33
45565;BMP280;31280;40.408;17.282;2022-12-26T08:13:33;102620.72;;;13.35
45565;BMP280;31280;40.408;17.282;2022-12-26T08:16:04;102610.66;;;13.32
45565;BMP280;31280;40.408;17.282;2022-12-26T08:18:31;102621.53;;;13.43
45565;BMP280;31280;40.408;17.282;2022-12-26T08:20:57;102622.66;;;13.45
45565;BMP280;31280;40.408;17.282;2022-12-26T08:23:23;102608.34;;;13.38
45565;BMP280;31280;40.408;17.282;2022-12-26T08:25:48;102614.56;;;13.49
45565;BMP280;31280;40.408;17.282;2022-12-26T08:28:14;102630.03;;;13.55
45565;BMP280;31280;40.408;17.282;2022-12-26T08:30:41;102628.50;;;13.51
45565;BMP280;31280;40.408;17.282;2022-12-26T08:33:07;102630.03;;;13.55
45565;BMP280;31280;40.408;17.282;2022-12-26T08:35:34;102627.72;;;13.60
45565;BMP280;31280;40.408;17.282;2022-12-26T08:38:00;102630.84;;;13.66
45565;BMP280;31280;40.408;17.282;2022-12-26T08:40:26;102617.28;;;13.66
45565;BMP280;31280;40.408;17.282;2022-12-26T08:42:52;102632.41;;;13.81
45565;BMP280;31280;40.408;17.282;2022-12-26T08:45:18;102645.97;;;13.87
45565;BMP280;31280;40.408;17.282;2022-12-26T08:47:44;102637.44;;;13.92
45565;BMP280;31280;40.408;17.282;2022-12-26T08:50:10;102643.28;;;13.98
45565;BMP280;31280;40.408;17.282;2022-12-26T08:52:36;102650.25;;;14.09
45565;BMP280;31280;40.408;17.282;2022-12-26T08:55:02;102637.81;;;14.11
45565;BMP280;31280;40.408;17.282;2022-12-26T08:57:28;102649.44;;;14.19
45565;BMP280;31280;40.408;17.282;2022-12-26T08:59:54;102647.09;;;14.21
45565;BMP280;31280;40.408;17.282;2022-12-26T09:02:20;102630.47;;;14.19
45565;BMP280;31280;40.408;17.282;2022-12-26T09:04:46;102649.03;;;14.34
45565;BMP280;31280;40.408;17.282;2022-12-26T09:07:12;102646.34;;;14.41
45565;BMP280;31280;40.408;17.282;2022-12-26T09:09:37;102638.94;;;14.45
45565;BMP280;31280;40.408;17.282;2022-12-26T09:12:03;102642.44;;;14.52
45565;BMP280;31280;40.408;17.282;2022-12-26T09:14:29;102648.19;;;14.61
45565;BMP280;31280;40.408;17.282;2022-12-26T09:16:55;102640.44;;;14.70
45565;BMP280;31280;40.408;17.282;2022-12-26T09:19:21;102636.16;;;14.72
45565;BMP280;31280;40.408;17.282;2022-12-26T09:21:48;102633.00;;;14.84
45565;BMP280;31280;40.408;17.282;2022-12-26T09:24:34;102624.47;;;14.86
45565;BMP280;31280;40.408;17.282;2022-12-26T09:26:59;102630.66;;;14.97
45565;BMP280;31280;40.408;17.282;2022-12-26T09:29:25;102630.63;;;15.00
45565;BMP280;31280;40.408;17.282;2022-12-26T09:31:54;102634.09;;;15.07
45565;BMP280;31280;40.408;17.282;2022-12-26T09:34:19;102634.50;;;15.09
45565;BMP280;31280;40.408;17.282;2022-12-26T09:36:45;102628.97;;;15.16
45565;BMP280;31280;40.408;17.282;2022-12-26T09:39:11;102622.03;;;15.15
45565;BMP280;31280;40.408;17.282;2022-12-26T09:45:15;102632.41;;;15.34
45565;BMP280;31280;40.408;17.282;2022-12-26T09:47:49;102638.97;;;15.40
45565;BMP280;31280;40.408;17.282;2022-12-26T09:50:30;102631.16;;;15.45
45565;BMP280;31280;40.408;17.282;2022-12-26T09:53:12;102632.69;;;15.50
45565;BMP280;31280;40.408;17.282;2022-12-26T09:55:49;102631.09;;;15.56
45565;BMP280;31280;40.408;17.282;2022-12-26T09:58:28;102632.56;;;15.63
45565;BMP280;31280;40.408;17.282;2022-12-26T10:01:10;102622.91;;;15.62
45565;BMP280;31280;40.408;17.282;2022-12-26T10:03:43;102627.47;;;15.72
45565;BMP280;31280;40.408;17.282;2022-12-26T10:25:00;102614.34;;;16.04
45565;BMP280;31280;40.408;17.282;2022-12-26T10:27:30;102601.84;;;16.10
45565;BMP280;31280;40.408;17.282;2022-12-26T10:30:14;102606.47;;;16.16
45565;BMP280;31280;40.408;17.282;2022-12-26T10:32:47;102606.44;;;16.19
45565;BMP280;31280;40.408;17.282;2022-12-26T10:35:21;102598.25;;;16.23
45565;BMP280;31280;40.408;17.282;2022-12-26T10:37:47;102603.63;;;16.26
45565;BMP280;31280;40.408;17.282;2022-12-26T10:40:26;102599.34;;;16.29
45565;BMP280;31280;40.408;17.282;2022-12-26T10:42:56;102597.78;;;16.31
45565;BMP280;31280;40.408;17.282;2022-12-26T10:45:41;102597.00;;;16.31
45565;BMP280;31280;40.408;17.282;2022-12-26T10:48:12;102607.09;;;16.30
45565;BMP280;31280;40.408;17.282;2022-12-26T10:50:43;102599.72;;;16.31
45565;BMP280;31280;40.408;17.282;2022-12-26T10:53:12;102604.06;;;16.25
45565;BMP280;31280;40.408;17.282;2022-12-26T10:55:39;102603.31;;;16.21
45565;BMP280;31280;40.408;17.282;2022-12-26T10:58:12;102601.03;;;16.16
45565;BMP280;31280;40.408;17.282;2022-12-26T11:00:39;102594.09;;;16.12
45565;BMP280;31280;40.408;17.282;2022-12-26T11:03:16;102572.94;;;15.93
45565;BMP280;31280;40.408;17.282;2022-12-26T11:05:45;102576.34;;;16.00
45565;BMP280;31280;40.408;17.282;2022-12-26T11:08:35;102575.53;;;16.03
45565;BMP280;31280;40.408;17.282;2022-12-26T11:11:06;102586.38;;;16.07
45565;BMP280;31280;40.408;17.282;2022-12-26T11:13:45;102509.84;;;15.68
45565;BMP280;31280;40.408;17.282;2022-12-26T11:16:11;102583.59;;;16.14
45565;BMP280;31280;40.408;17.282;2022-12-26T11:18:45;102581.63;;;16.17
45565;BMP280;31280;40.408;17.282;2022-12-26T11:23:47;102572.56;;;16.24
45565;BMP280;31280;40.408;17.282;2022-12-26T11:26:28;102548.97;;;16.17
45565;BMP280;31280;40.408;17.282;2022-12-26T11:29:17;102568.22;;;16.33
45565;BMP280;31280;40.408;17.282;2022-12-26T11:31:56;102556.50;;;16.36
45565;BMP280;31280;40.408;17.282;2022-12-26T11:34:33;102560.06;;;16.33
45565;BMP280;31280;40.408;17.282;2022-12-26T11:36:59;102554.97;;;16.35
45565;BMP280;31280;40.408;17.282;2022-12-26T11:39:43;102555.34;;;16.37
45565;BMP280;31280;40.408;17.282;2022-12-26T11:42:10;102541.03;;;16.30
45565;BMP280;31280;40.408;17.282;2022-12-26T11:44:40;102556.91;;;16.35
45565;BMP280;31280;40.408;17.282;2022-12-26T11:47:08;102555.78;;;16.32
45565;BMP280;31280;40.408;17.282;2022-12-26T11:49:39;102549.97;;;16.30
45565;BMP280;31280;40.408;17.282;2022-12-26T11:52:38;102545.72;;;16.29
45565;BMP280;31280;40.408;17.282;2022-12-26T11:58:19;102550.41;;;16.25
45565;BMP280;31280;40.408;17.282;2022-12-26T12:03:31;102545.75;;;16.26
45565;BMP280;31280;40.408;17.282;2022-12-26T12:08:28;102542.66;;;16.24
45565;BMP280;31280;40.408;17.282;2022-12-26T12:18:56;102538.81;;;16.21
45565;BMP280;31280;40.408;17.282;2022-12-26T12:30:19;102529.94;;;16.17
45565;BMP280;31280;40.408;17.282;2022-12-26T12:36:07;102505.56;;;16.07
45565;BMP280;31280;40.408;17.282;2022-12-26T12:44:12;102521.31;;;16.19
45565;BMP280;31280;40.408;17.282;2022-12-26T12:47:06;102521.78;;;16.14
45565;BMP280;31280;40.408;17.282;2022-12-26T12:52:46;102520.69;;;16.12
45565;BMP280;31280;40.408;17.282;2022-12-26T12:58:29;102524.94;;;16.13
45565;BMP280;31280;40.408;17.282;2022-12-26T13:01:04;102527.31;;;16.07
45565;BMP280;31280;40.408;17.282;2022-12-26T13:03:53;102532.38;;;16.05
45565;BMP280;31280;40.408;17.282;2022-12-26T13:06:38;102530.81;;;16.08
45565;BMP280;31280;40.408;17.282;2022-12-26T13:09:18;102533.53;;;16.08
45565;BMP280;31280;40.408;17.282;2022-12-26T13:11:51;102532.03;;;16.03
45565;BMP280;31280;40.408;17.282;2022-12-26T13:14:22;102529.28;;;16.07
45565;BMP280;31280;40.408;17.282;2022-12-26T13:19:27;102531.25;;;16.03
45565;BMP280;31280;40.408;17.282;2022-12-26T13:21:59;102522.78;;;15.94
45565;BMP280;31280;40.408;17.282;2022-12-26T13:24:33;102532.03;;;16.00
45565;BMP280;31280;40.408;17.282;2022-12-26T13:31:56;102533.59;;;16.01
45565;BMP280;31280;40.408;17.282;2022-12-26T13:34:22;102517.34;;;15.94
45565;BMP280;31280;40.408;17.282;2022-12-26T13:36:50;102532.84;;;16.00
45565;BMP280;31280;40.408;17.282;2022-12-26T13:41:53;102513.13;;;15.93
45565;BMP280;31280;40.408;17.282;2022-12-26T13:44:39;102530.44;;;16.06
45565;BMP280;31280;40.408;17.282;2022-12-26T13:47:07;102521.53;;;16.02
45565;BMP280;31280;40.408;17.282;2022-12-26T13:49:51;102532.00;;;16.07
45565;BMP280;31280;40.408;17.282;2022-12-26T13:52:32;102530.44;;;16.06
45565;BMP280;31280;40.408;17.282;2022-12-26T14:03:30;102531.28;;;15.99
45565;BMP280;31280;40.408;17.282;2022-12-26T14:17:21;102535.66;;;15.90
45565;BMP280;31280;40.408;17.282;2022-12-26T14:36:38;102540.13;;;15.70
45565;BMP280;31280;40.408;17.282;2022-12-26T14:40:26;102539.38;;;15.70
45565;BMP280;31280;40.408;17.282;2022-12-26T14:42:22;102538.22;;;15.67
45565;BMP280;31280;40.408;17.282;2022-12-26T14:47:56;102531.66;;;15.61
45565;BMP280;31280;40.408;17.282;2022-12-26T15:12:03;102545.44;;;15.41
45565;BMP280;31280;40.408;17.282;2022-12-26T15:31:41;102550.22;;;15.23
45565;BMP280;31280;40.408;17.282;2022-12-26T15:44:34;102546.81;;;15.09
45565;BMP280;31280;40.408;17.282;2022-12-26T15:50:26;102549.13;;;15.07
45565;BMP280;31280;40.408;17.282;2022-12-26T15:56:09;102551.53;;;15.01
45565;BMP280;31280;40.408;17.282;2022-12-26T16:01:11;102530.25;;;14.90
45565;BMP280;31280;40.408;17.282;2022-12-26T16:03:52;102536.47;;;14.90
45565;BMP280;31280;40.408;17.282;2022-12-26T16:06:40;102543.00;;;14.99
45565;BMP280;31280;40.408;17.282;2022-12-26T16:09:42;102546.13;;;14.95
45565;BMP280;31280;40.408;17.282;2022-12-26T16:12:33;102551.19;;;14.93
45565;BMP280;31280;40.408;17.282;2022-12-26T16:15:12;102554.28;;;14.91
45565;BMP280;31280;40.408;17.282;2022-12-26T16:17:40;102534.63;;;14.77
45565;BMP280;31280;40.408;17.282;2022-12-26T16:23:14;102551.59;;;14.84
45565;BMP280;31280;40.408;17.282;2022-12-26T16:25:52;102552.38;;;14.85
45565;BMP280;31280;40.408;17.282;2022-12-26T16:28:33;102555.09;;;14.85
45565;BMP280;31280;40.408;17.282;2022-12-26T16:30:59;102554.72;;;14.83
45565;BMP280;31280;40.408;17.282;2022-12-26T16:33:46;102558.59;;;14.82
45565;BMP280;31280;40.408;17.282;2022-12-26T16:36:21;102558.22;;;14.80
45565;BMP280;31280;40.408;17.282;2022-12-26T16:38:47;102552.41;;;14.78
45565;BMP280;31280;40.408;17.282;2022-12-26T16:41:25;102554.34;;;14.77
45565;BMP280;31280;40.408;17.282;2022-12-26T16:43:53;102565.63;;;14.76
45565;BMP280;31280;40.408;17.282;2022-12-26T16:46:22;102554.38;;;14.74
45565;BMP280;31280;40.408;17.282;2022-12-26T16:48:58;102552.84;;;14.73
45565;BMP280;31280;40.408;17.282;2022-12-26T16:56:52;102565.22;;;14.74
45565;BMP280;31280;40.408;17.282;2022-12-26T16:59:23;102547.81;;;14.68
45565;BMP280;31280;40.408;17.282;2022-12-26T17:01:55;102566.41;;;14.73
45565;BMP280;31280;40.408;17.282;2022-12-26T17:04:25;102550.91;;;14.67
45565;BMP280;31280;40.408;17.282;2022-12-26T17:07:03;102547.44;;;14.66
45565;BMP280;31280;40.408;17.282;2022-12-26T17:09:38;102561.38;;;14.71
45565;BMP280;31280;40.408;17.282;2022-12-26T17:12:45;102549.78;;;14.64
45565;BMP280;31280;40.408;17.282;2022-12-26T17:15:05;102560.19;;;14.69
45565;BMP280;31280;40.408;17.282;2022-12-26T17:17:33;102550.19;;;14.59
45565;BMP280;31280;40.408;17.282;2022-12-26T17:22:48;102566.81;;;14.68
45565;BMP280;31280;40.408;17.282;2022-12-26T17:27:48;102558.28;;;14.63
45565;BMP280;31280;40.408;17.282;2022-12-26T17:30:38;102562.97;;;14.66
45565;BMP280;31280;40.408;17.282;2022-12-26T17:33:10;102551.75;;;14.60
45565;BMP280;31280;40.408;17.282;2022-12-26T17:35:37;102558.66;;;14.68
45565;BMP280;31280;40.408;17.282;2022-12-26T17:38:13;102560.25;;;14.66
45565;BMP280;31280;40.408;17.282;2022-12-26T17:40:40;102554.44;;;14.60
45565;BMP280;31280;40.408;17.282;2022-12-26T17:43:39;102562.16;;;14.65
45565;BMP280;31280;40.408;17.282;2022-12-26T17:46:06;102555.56;;;14.66
45565;BMP280;31280;40.408;17.282;2022-12-26T17:48:33;102557.09;;;14.67
45565;BMP280;31280;40.408;17.282;2022-12-26T17:51:02;102561.38;;;14.68
45565;BMP280;31280;40.408;17.282;2022-12-26T17:53:30;102551.66;;;14.67
45565;BMP280;31280;40.408;17.282;2022-12-26T17:56:00;102558.66;;;14.68
45565;BMP280;31280;40.408;17.282;2022-12-26T17:58:27;102556.31;;;14.67
45565;BMP280;31280;40.408;17.282;2022-12-26T18:00:54;102556.31;;;14.67
45565;BMP280;31280;40.408;17.282;2022-12-26T18:03:20;102559.41;;;14.72
45565;BMP280;31280;40.408;17.282;2022-12-26T18:05:46;102547.78;;;14.75
45565;BMP280;31280;40.408;17.282;2022-12-26T18:10:52;102550.91;;;14.77
45565;BMP280;31280;40.408;17.282;2022-12-26T18:13:18;102545.84;;;14.75
45565;BMP280;31280;40.408;17.282;2022-12-26T18:15:44;102548.94;;;14.74